sensor_id;sensor_type;location;lat;lon;timestamp;P1;durP1;ratioP1;P2;durP2;ratioP2
15788;SDS011;59075;50.670;6.474;2022-09-09T05:00:16;881.90;;;821.70;;
15788;SDS011;59075;50.670;6.474;2022-09-09T05:02:43;873.77;;;813.87;;
15788;SDS011;59075;50.670;6.474;2022-09-09T05:05:10;883.83;;;823.67;;
15788;SDS011;59075;50.670;6.474;2022-09-09T05:07:37;875.60;;;815.53;;
15788;SDS011;59075;50.670;6.474;2022-09-09T05:10:04;876.63;;;816.43;;
15788;SDS011;59075;50.670;6.474;2022-09-09T05:12:31;883.07;;;822.67;;
15788;SDS011;59075;50.670;6.474;2022-09-09T05:14:57;865.77;;;806.00;;
15788;SDS011;59075;50.670;6.474;2022-09-09T05:17:25;885.00;;;824.73;;
15788;SDS011;59075;50.670;6.474;2022-09-09T05:19:52;877.73;;;817.67;;
15788;SDS011;59075;50.670;6.474;2022-09-09T05:22:19;891.90;;;831.23;;
15788;SDS011;59075;50.670;6.474;2022-09-09T05:24:46;881.90;;;821.63;;
15788;SDS011;59075;50.670;6.474;2022-09-09T05:27:14;888.77;;;828.10;;
15788;SDS011;59075;50.670;6.474;2022-09-09T05:29:40;891.17;;;830.53;;
15788;SDS011;59075;50.670;6.474;2022-09-09T05:32:09;885.37;;;824.93;;
15788;SDS011;59075;50.670;6.474;2022-09-09T05:34:37;874.10;;;814.10;;
15788;SDS011;59075;50.670;6.474;2022-09-09T05:37:04;880.53;;;820.23;;
15788;SDS011;59075;50.670;6.474;2022-09-09T05:39:32;871.90;;;812.10;;
15788;SDS011;59075;50.670;6.474;2022-09-09T05:42:01;873.97;;;814.00;;
15788;SDS011;59075;50.670;6.474;2022-09-09T05:44:29;875.97;;;815.97;;
15788;SDS011;59075;50.670;6.474;2022-09-09T05:46:56;882.37;;;821.90;;
15788;SDS011;59075;50.670;6.474;2022-09-09T05:49:23;888.07;;;827.63;;
15788;SDS011;59075;50.670;6.474;2022-09-09T05:51:51;876.87;;;816.53;;
15788;SDS011;59075;50.670;6.474;2022-09-09T05:54:18;877.97;;;817.73;;
15788;SDS011;59075;50.670;6.474;2022-09-09T05:56:45;881.73;;;821.43;;
15788;SDS011;59075;50.670;6.474;2022-09-09T05:59:14;887.83;;;826.50;;
15788;SDS011;59075;50.670;6.474;2022-09-09T06:01:41;876.90;;;816.70;;
15788;SDS011;59075;50.670;6.474;2022-09-09T06:04:07;879.63;;;819.17;;
15788;SDS011;59075;50.670;6.474;2022-09-09T06:06:35;881.80;;;821.43;;
15788;SDS011;59075;50.670;6.474;2022-09-09T06:09:06;887.03;;;825.90;;
15788;SDS011;59075;50.670;6.474;2022-09-09T06:11:36;880.13;;;819.77;;
15788;SDS011;59075;50.670;6.474;2022-09-09T06:14:04;879.50;;;819.33;;
15788;SDS011;59075;50.670;6.474;2022-09-09T06:16:31;884.07;;;823.70;;
15788;SDS011;59075;50.670;6.474;2022-09-09T06:18:59;873.63;;;813.53;;
15788;SDS011;59075;50.670;6.474;2022-09-09T06:21:28;885.13;;;824.83;;
15788;SDS011;59075;50.670;6.474;2022-09-09T06:23:57;877.10;;;817.00;;
15788;SDS011;59075;50.670;6.474;2022-09-09T06:26:25;889.63;;;828.90;;
15788;SDS011;59075;50.670;6.474;2022-09-09T06:28:54;888.70;;;828.00;;
15788;SDS011;59075;50.670;6.474;2022-09-09T06:31:23;888.83;;;828.20;;
15788;SDS011;59075;50.670;6.474;2022-09-09T06:33:53;891.07;;;830.40;;
15788;SDS011;59075;50.670;6.474;2022-09-09T06:36:20;894.63;;;833.60;;
15788;SDS011;59075;50.670;6.474;2022-09-09T06:38:48;882.23;;;821.77;;
15788;SDS011;59075;50.670;6.474;2022-09-09T06:41:16;879.40;;;819.03;;
15788;SDS011;59075;50.670;6.474;2022-09-09T06:43:46;890.43;;;829.47;;
15788;SDS011;59075;50.670;6.474;2022-09-09T06:46:14;886.10;;;825.53;;
15788;SDS011;59075;50.670;6.474;2022-09-09T06:48:43;883.43;;;823.10;;
15788;SDS011;59075;50.670;6.474;2022-09-09T06:51:11;893.30;;;832.47;;
15788;SDS011;59075;50.670;6.474;2022-09-09T06:53:41;886.00;;;825.53;;
15788;SDS011;59075;50.670;6.474;2022-09-09T06:56:17;876.90;;;816.93;;
15788;SDS011;59075;50.670;6.474;2022-09-09T06:58:47;882.20;;;821.93;;
15788;SDS011;59075;50.670;6.474;2022-09-09T07:01:14;887.03;;;826.47;;
15788;SDS011;59075;50.670;6.474;2022-09-09T07:03:42;883.20;;;822.80;;
15788;SDS011;59075;50.670;6.474;2022-09-09T07:06:13;895.27;;;834.20;;
15788;SDS011;59075;50.670;6.474;2022-09-09T07:08:41;890.23;;;829.60;;
15788;SDS011;59075;50.670;6.474;2022-09-09T07:11:09;882.33;;;821.67;;
15788;SDS011;59075;50.670;6.474;2022-09-09T07:13:36;885.90;;;825.33;;
15788;SDS011;59075;50.670;6.474;2022-09-09T07:16:04;891.63;;;830.87;;
15788;SDS011;59075;50.670;6.474;2022-09-09T07:18:32;884.83;;;824.17;;
15788;SDS011;59075;50.670;6.474;2022-09-09T07:20:59;881.10;;;820.60;;
15788;SDS011;59075;50.670;6.474;2022-09-09T07:23:28;893.00;;;832.10;;
15788;SDS011;59075;50.670;6.474;2022-09-09T07:25:55;879.90;;;819.77;;
15788;SDS011;59075;50.670;6.474;2022-09-09T07:28:22;883.57;;;823.20;;
15788;SDS011;59075;50.670;6.474;2022-09-09T07:30:55;889.63;;;829.23;;
15788;SDS011;59075;50.670;6.474;2022-09-09T07:33:24;884.43;;;824.17;;
15788;SDS011;59075;50.670;6.474;2022-09-09T07:35:51;885.67;;;825.23;;
15788;SDS011;59075;50.670;6.474;2022-09-09T07:38:19;883.10;;;822.83;;
15788;SDS011;59075;50.670;6.474;2022-09-09T07:40:47;881.63;;;821.40;;
15788;SDS011;59075;50.670;6.474;2022-09-09T07:43:14;888.60;;;827.87;;
15788;SDS011;59075;50.670;6.474;2022-09-09T07:45:41;881.73;;;821.20;;
15788;SDS011;59075;50.670;6.474;2022-09-09T07:48:08;880.43;;;820.23;;
15788;SDS011;59075;50.670;6.474;2022-09-09T07:50:37;875.80;;;815.77;;
15788;SDS011;59075;50.670;6.474;2022-09-09T07:53:04;876.20;;;816.10;;
15788;SDS011;59075;50.670;6.474;2022-09-09T07:55:31;878.17;;;817.90;;
15788;SDS011;59075;50.670;6.474;2022-09-09T07:57:58;879.93;;;819.73;;
15788;SDS011;59075;50.670;6.474;2022-09-09T08:00:24;884.40;;;823.80;;
15788;SDS011;59075;50.670;6.474;2022-09-09T08:02:52;890.70;;;830.03;;
15788;SDS011;59075;50.670;6.474;2022-09-09T08:05:19;882.60;;;822.40;;
15788;SDS011;59075;50.670;6.474;2022-09-09T08:07:48;886.27;;;825.67;;
15788;SDS011;59075;50.670;6.474;2022-09-09T08:10:15;889.07;;;828.43;;
15788;SDS011;59075;50.670;6.474;2022-09-09T08:12:43;886.47;;;825.93;;
15788;SDS011;59075;50.670;6.474;2022-09-09T08:15:10;892.33;;;831.63;;
15788;SDS011;59075;50.670;6.474;2022-09-09T08:17:37;883.17;;;822.63;;
15788;SDS011;59075;50.670;6.474;2022-09-09T08:20:04;884.73;;;824.40;;
15788;SDS011;59075;50.670;6.474;2022-09-09T08:22:31;884.50;;;824.03;;
15788;SDS011;59075;50.670;6.474;2022-09-09T08:25:00;879.10;;;819.10;;
15788;SDS011;59075;50.670;6.474;2022-09-09T08:27:27;883.73;;;823.17;;
15788;SDS011;59075;50.670;6.474;2022-09-09T08:29:54;883.87;;;823.57;;
15788;SDS011;59075;50.670;6.474;2022-09-09T08:32:21;878.20;;;818.10;;
15788;SDS011;59075;50.670;6.474;2022-09-09T08:34:47;886.93;;;826.40;;
15788;SDS011;59075;50.670;6.474;2022-09-09T08:37:14;879.37;;;818.97;;
15788;SDS011;59075;50.670;6.474;2022-09-09T08:39:41;892.43;;;831.80;;
15788;SDS011;59075;50.670;6.474;2022-09-09T08:42:15;887.07;;;826.53;;
15788;SDS011;59075;50.670;6.474;2022-09-09T08:45:02;896.73;;;836.00;;
15788;SDS011;59075;50.670;6.474;2022-09-09T08:47:53;891.93;;;831.37;;
15788;SDS011;59075;50.670;6.474;2022-09-09T08:50:29;883.27;;;823.03;;
15788;SDS011;59075;50.670;6.474;2022-09-09T08:53:00;895.53;;;834.70;;
15788;SDS011;59075;50.670;6.474;2022-09-09T08:55:35;882.23;;;821.90;;
15788;SDS011;59075;50.670;6.474;2022-09-09T08:58:09;897.67;;;836.57;;
15788;SDS011;59075;50.670;6.474;2022-09-09T09:00:42;892.17;;;831.53;;
15788;SDS011;59075;50.670;6.474;2022-09-09T09:03:18;885.30;;;824.77;;
15788;SDS011;59075;50.670;6.474;2022-09-09T09:05:56;894.33;;;833.47;;
15788;SDS011;59075;50.670;6.474;2022-09-09T09:08:30;890.17;;;829.47;;
15788;SDS011;59075;50.670;6.474;2022-09-09T09:11:06;897.60;;;836.70;;
15788;SDS011;59075;50.670;6.474;2022-09-09T09:13:35;886.60;;;825.97;;
15788;SDS011;59075;50.670;6.474;2022-09-09T09:16:10;886.00;;;825.43;;
15788;SDS011;59075;50.670;6.474;2022-09-09T09:18:45;903.80;;;842.47;;
15788;SDS011;59075;50.670;6.474;2022-09-09T09:21:12;882.53;;;822.17;;
15788;SDS011;59075;50.670;6.474;2022-09-09T09:23:48;893.43;;;832.53;;
15788;SDS011;59075;50.670;6.474;2022-09-09T09:26:20;877.83;;;817.53;;
15788;SDS011;59075;50.670;6.474;2022-09-09T09:28:50;891.93;;;831.13;;
15788;SDS011;59075;50.670;6.474;2022-09-09T09:31:21;895.57;;;834.67;;
15788;SDS011;59075;50.670;6.474;2022-09-09T09:33:49;887.27;;;826.87;;
15788;SDS011;59075;50.670;6.474;2022-09-09T09:36:18;896.33;;;835.30;;
15788;SDS011;59075;50.670;6.474;2022-09-09T09:38:51;897.23;;;836.23;;
15788;SDS011;59075;50.670;6.474;2022-09-09T09:41:30;891.70;;;830.73;;
15788;SDS011;59075;50.670;6.474;2022-09-09T09:44:01;890.17;;;829.60;;
15788;SDS011;59075;50.670;6.474;2022-09-09T09:46:29;900.87;;;839.70;;
15788;SDS011;59075;50.670;6.474;2022-09-09T09:48:57;896.37;;;835.43;;
15788;SDS011;59075;50.670;6.474;2022-09-09T09:51:25;898.47;;;837.60;;
15788;SDS011;59075;50.670;6.474;2022-09-09T09:53:53;896.37;;;835.27;;
15788;SDS011;59075;50.670;6.474;2022-09-09T09:56:26;904.67;;;843.17;;
15788;SDS011;59075;50.670;6.474;2022-09-09T09:58:54;897.47;;;836.50;;
15788;SDS011;59075;50.670;6.474;2022-09-09T10:01:23;901.43;;;840.20;;
15788;SDS011;59075;50.670;6.474;2022-09-09T10:03:53;905.37;;;843.93;;
15788;SDS011;59075;50.670;6.474;2022-09-09T10:06:29;885.20;;;824.57;;
15788;SDS011;59075;50.670;6.474;2022-09-09T10:08:58;889.37;;;828.63;;
15788;SDS011;59075;50.670;6.474;2022-09-09T10:11:30;897.33;;;836.33;;
15788;SDS011;59075;50.670;6.474;2022-09-09T10:14:12;895.20;;;834.40;;
15788;SDS011;59075;50.670;6.474;2022-09-09T10:16:50;895.07;;;834.20;;
15788;SDS011;59075;50.670;6.474;2022-09-09T10:19:29;905.87;;;844.40;;
15788;SDS011;59075;50.670;6.474;2022-09-09T10:22:06;904.77;;;843.30;;
15788;SDS011;59075;50.670;6.474;2022-09-09T10:27:52;885.50;;;824.97;;
15788;SDS011;59075;50.670;6.474;2022-09-09T10:30:35;894.27;;;833.57;;
15788;SDS011;59075;50.670;6.474;2022-09-09T10:33:18;895.23;;;834.37;;
15788;SDS011;59075;50.670;6.474;2022-09-09T10:35:54;907.00;;;845.63;;
15788;SDS011;59075;50.670;6.474;2022-09-09T10:38:28;895.00;;;834.20;;
15788;SDS011;59075;50.670;6.474;2022-09-09T10:43:57;905.20;;;843.83;;
15788;SDS011;59075;50.670;6.474;2022-09-09T10:46:41;892.33;;;831.37;;
15788;SDS011;59075;50.670;6.474;2022-09-09T10:49:19;902.60;;;840.73;;
15788;SDS011;59075;50.670;6.474;2022-09-09T10:51:56;904.73;;;843.37;;
15788;SDS011;59075;50.670;6.474;2022-09-09T10:54:44;903.00;;;841.83;;
15788;SDS011;59075;50.670;6.474;2022-09-09T10:57:24;905.57;;;844.33;;
15788;SDS011;59075;50.670;6.474;2022-09-09T10:59:57;905.60;;;844.27;;
15788;SDS011;59075;50.670;6.474;2022-09-09T11:02:29;903.97;;;842.67;;
15788;SDS011;59075;50.670;6.474;2022-09-09T11:05:00;908.83;;;847.37;;
15788;SDS011;59075;50.670;6.474;2022-09-09T11:07:33;909.23;;;847.67;;
15788;SDS011;59075;50.670;6.474;2022-09-09T11:10:05;895.50;;;834.70;;
15788;SDS011;59075;50.670;6.474;2022-09-09T11:12:42;903.07;;;841.97;;
15788;SDS011;59075;50.670;6.474;2022-09-09T11:15:14;902.93;;;841.43;;
15788;SDS011;59075;50.670;6.474;2022-09-09T11:17:46;891.33;;;830.53;;
15788;SDS011;59075;50.670;6.474;2022-09-09T11:20:17;909.63;;;848.00;;
15788;SDS011;59075;50.670;6.474;2022-09-09T11:22:46;894.83;;;834.03;;
15788;SDS011;59075;50.670;6.474;2022-09-09T11:25:16;909.93;;;848.27;;
15788;SDS011;59075;50.670;6.474;2022-09-09T11:27:51;901.13;;;840.10;;
15788;SDS011;59075;50.670;6.474;2022-09-09T11:30:31;903.40;;;842.17;;
15788;SDS011;59075;50.670;6.474;2022-09-09T11:36:05;896.43;;;835.40;;
15788;SDS011;59075;50.670;6.474;2022-09-09T11:39:06;893.70;;;832.63;;
15788;SDS011;59075;50.670;6.474;2022-09-09T11:41:50;893.97;;;833.07;;
15788;SDS011;59075;50.670;6.474;2022-09-09T11:44:18;900.43;;;839.00;;
15788;SDS011;59075;50.670;6.474;2022-09-09T11:46:50;901.87;;;840.70;;
15788;SDS011;59075;50.670;6.474;2022-09-09T11:49:25;909.13;;;846.90;;
15788;SDS011;59075;50.670;6.474;2022-09-09T11:51:55;907.57;;;846.17;;
15788;SDS011;59075;50.670;6.474;2022-09-09T11:54:26;897.53;;;836.33;;
15788;SDS011;59075;50.670;6.474;2022-09-09T11:56:55;906.63;;;845.33;;
15788;SDS011;59075;50.670;6.474;2022-09-09T11:59:23;906.00;;;844.70;;
15788;SDS011;59075;50.670;6.474;2022-09-09T12:01:54;910.47;;;848.83;;
15788;SDS011;59075;50.670;6.474;2022-09-09T12:04:27;902.83;;;841.60;;
15788;SDS011;59075;50.670;6.474;2022-09-09T12:07:00;900.97;;;839.77;;
15788;SDS011;59075;50.670;6.474;2022-09-09T12:09:30;886.93;;;826.20;;
15788;SDS011;59075;50.670;6.474;2022-09-09T12:14:54;903.20;;;841.83;;
15788;SDS011;59075;50.670;6.474;2022-09-09T12:17:24;902.87;;;841.60;;
15788;SDS011;59075;50.670;6.474;2022-09-09T12:19:59;907.73;;;846.40;;
15788;SDS011;59075;50.670;6.474;2022-09-09T12:22:34;908.13;;;846.67;;
15788;SDS011;59075;50.670;6.474;2022-09-09T12:25:09;912.27;;;850.67;;
15788;SDS011;59075;50.670;6.474;2022-09-09T12:27:51;910.60;;;848.73;;
15788;SDS011;59075;50.670;6.474;2022-09-09T12:30:28;901.83;;;840.77;;
15788;SDS011;59075;50.670;6.474;2022-09-09T12:33:00;908.23;;;846.80;;
15788;SDS011;59075;50.670;6.474;2022-09-09T12:35:28;913.50;;;851.80;;
15788;SDS011;59075;50.670;6.474;2022-09-09T12:37:59;910.17;;;848.57;;
15788;SDS011;59075;50.670;6.474;2022-09-09T12:40:29;907.40;;;845.80;;
15788;SDS011;59075;50.670;6.474;2022-09-09T12:43:00;904.67;;;843.30;;
15788;SDS011;59075;50.670;6.474;2022-09-09T12:45:28;909.33;;;847.77;;
15788;SDS011;59075;50.670;6.474;2022-09-09T12:47:57;897.73;;;836.60;;
15788;SDS011;59075;50.670;6.474;2022-09-09T12:50:27;902.00;;;840.73;;
15788;SDS011;59075;50.670;6.474;2022-09-09T12:52:57;914.67;;;853.03;;
15788;SDS011;59075;50.670;6.474;2022-09-09T12:55:28;907.53;;;846.03;;
15788;SDS011;59075;50.670;6.474;2022-09-09T12:57:58;897.03;;;836.10;;
15788;SDS011;59075;50.670;6.474;2022-09-09T13:00:29;905.47;;;843.93;;
15788;SDS011;59075;50.670;6.474;2022-09-09T13:02:57;907.77;;;846.33;;
15788;SDS011;59075;50.670;6.474;2022-09-09T13:05:26;896.20;;;835.17;;
15788;SDS011;59075;50.670;6.474;2022-09-09T13:08:01;909.10;;;847.63;;
15788;SDS011;59075;50.670;6.474;2022-09-09T13:10:30;908.40;;;847.07;;
15788;SDS011;59075;50.670;6.474;2022-09-09T13:13:01;896.50;;;835.73;;
15788;SDS011;59075;50.670;6.474;2022-09-09T13:15:28;908.60;;;847.13;;
15788;SDS011;59075;50.670;6.474;2022-09-09T13:17:56;901.63;;;840.53;;
15788;SDS011;59075;50.670;6.474;2022-09-09T13:20:26;913.53;;;851.83;;
15788;SDS011;59075;50.670;6.474;2022-09-09T13:22:54;914.33;;;852.57;;
15788;SDS011;59075;50.670;6.474;2022-09-09T13:25:24;910.93;;;849.37;;
15788;SDS011;59075;50.670;6.474;2022-09-09T13:27:54;900.27;;;839.23;;
15788;SDS011;59075;50.670;6.474;2022-09-09T13:30:24;899.93;;;838.77;;
15788;SDS011;59075;50.670;6.474;2022-09-09T13:33:03;903.93;;;842.77;;
15788;SDS011;59075;50.670;6.474;2022-09-09T13:35:32;904.13;;;842.87;;
15788;SDS011;59075;50.670;6.474;2022-09-09T13:37:59;911.90;;;850.40;;
15788;SDS011;59075;50.670;6.474;2022-09-09T13:40:35;893.37;;;832.47;;
15788;SDS011;59075;50.670;6.474;2022-09-09T13:43:04;896.27;;;835.33;;
15788;SDS011;59075;50.670;6.474;2022-09-09T13:45:31;900.90;;;839.77;;
15788;SDS011;59075;50.670;6.474;2022-09-09T13:47:59;900.63;;;839.53;;
15788;SDS011;59075;50.670;6.474;2022-09-09T13:50:35;916.33;;;854.47;;
15788;SDS011;59075;50.670;6.474;2022-09-09T13:53:02;905.10;;;844.00;;
15788;SDS011;59075;50.670;6.474;2022-09-09T13:55:29;901.30;;;840.23;;
15788;SDS011;59075;50.670;6.474;2022-09-09T13:57:58;907.67;;;846.23;;
15788;SDS011;59075;50.670;6.474;2022-09-09T14:00:27;911.20;;;849.57;;
15788;SDS011;59075;50.670;6.474;2022-09-09T14:02:56;903.57;;;842.47;;
15788;SDS011;59075;50.670;6.474;2022-09-09T14:05:25;915.97;;;854.23;;
15788;SDS011;59075;50.670;6.474;2022-09-09T14:07:52;903.87;;;842.60;;
15788;SDS011;59075;50.670;6.474;2022-09-09T14:10:19;912.50;;;850.83;;
15788;SDS011;59075;50.670;6.474;2022-09-09T14:12:46;905.23;;;843.67;;
15788;SDS011;59075;50.670;6.474;2022-09-09T14:15:14;910.20;;;848.80;;
15788;SDS011;59075;50.670;6.474;2022-09-09T14:17:41;906.10;;;844.83;;
15788;SDS011;59075;50.670;6.474;2022-09-09T14:20:08;912.47;;;850.90;;
15788;SDS011;59075;50.670;6.474;2022-09-09T14:22:37;907.97;;;846.53;;
15788;SDS011;59075;50.670;6.474;2022-09-09T14:25:06;908.43;;;847.07;;
15788;SDS011;59075;50.670;6.474;2022-09-09T14:27:33;891.43;;;830.90;;
15788;SDS011;59075;50.670;6.474;2022-09-09T14:30:00;900.60;;;839.43;;
15788;SDS011;59075;50.670;6.474;2022-09-09T14:32:28;911.57;;;850.17;;
15788;SDS011;59075;50.670;6.474;2022-09-09T14:34:55;903.43;;;842.17;;
15788;SDS011;59075;50.670;6.474;2022-09-09T14:37:21;908.30;;;846.93;;
15788;SDS011;59075;50.670;6.474;2022-09-09T14:39:49;906.93;;;845.50;;
15788;SDS011;59075;50.670;6.474;2022-09-09T14:42:16;893.20;;;832.70;;
15788;SDS011;59075;50.670;6.474;2022-09-09T14:44:43;901.13;;;840.03;;
15788;SDS011;59075;50.670;6.474;2022-09-09T14:47:10;904.80;;;843.57;;
15788;SDS011;59075;50.670;6.474;2022-09-09T14:49:38;911.40;;;849.80;;
15788;SDS011;59075;50.670;6.474;2022-09-09T14:52:05;907.50;;;846.23;;
15788;SDS011;59075;50.670;6.474;2022-09-09T14:54:32;916.33;;;854.50;;
15788;SDS011;59075;50.670;6.474;2022-09-09T14:56:58;899.67;;;838.53;;
15788;SDS011;59075;50.670;6.474;2022-09-09T14:59:25;904.70;;;843.33;;
15788;SDS011;59075;50.670;6.474;2022-09-09T15:01:52;904.83;;;843.57;;
15788;SDS011;59075;50.670;6.474;2022-09-09T15:04:19;902.33;;;841.07;;
15788;SDS011;59075;50.670;6.474;2022-09-09T15:06:48;899.60;;;838.53;;
15788;SDS011;59075;50.670;6.474;2022-09-09T15:09:17;908.43;;;846.20;;
15788;SDS011;59075;50.670;6.474;2022-09-09T15:11:43;900.60;;;839.50;;
15788;SDS011;59075;50.670;6.474;2022-09-09T15:14:10;891.97;;;831.23;;
15788;SDS011;59075;50.670;6.474;2022-09-09T15:16:37;905.73;;;844.43;;
15788;SDS011;59075;50.670;6.474;2022-09-09T15:19:04;899.83;;;838.13;;
15788;SDS011;59075;50.670;6.474;2022-09-09T15:21:32;903.10;;;842.03;;
15788;SDS011;59075;50.670;6.474;2022-09-09T15:24:02;897.50;;;836.50;;
15788;SDS011;59075;50.670;6.474;2022-09-09T15:26:32;893.97;;;833.23;;
15788;SDS011;59075;50.670;6.474;2022-09-09T15:28:59;903.87;;;842.50;;
15788;SDS011;59075;50.670;6.474;2022-09-09T15:31:27;899.60;;;838.43;;
15788;SDS011;59075;50.670;6.474;2022-09-09T15:33:55;901.13;;;839.90;;
15788;SDS011;59075;50.670;6.474;2022-09-09T15:36:26;896.43;;;835.40;;
15788;SDS011;59075;50.670;6.474;2022-09-09T15:38:54;900.77;;;839.83;;
15788;SDS011;59075;50.670;6.474;2022-09-09T15:41:23;895.40;;;834.43;;
15788;SDS011;59075;50.670;6.474;2022-09-09T15:43:51;903.07;;;841.90;;
15788;SDS011;59075;50.670;6.474;2022-09-09T15:46:22;897.57;;;836.70;;
15788;SDS011;59075;50.670;6.474;2022-09-09T15:48:52;902.00;;;841.03;;
15788;SDS011;59075;50.670;6.474;2022-09-09T15:51:19;899.67;;;838.67;;
15788;SDS011;59075;50.670;6.474;2022-09-09T15:53:47;896.33;;;835.37;;
15788;SDS011;59075;50.670;6.474;2022-09-09T15:56:14;903.87;;;842.70;;
15788;SDS011;59075;50.670;6.474;2022-09-09T15:58:42;894.33;;;833.53;;
15788;SDS011;59075;50.670;6.474;2022-09-09T16:01:09;893.20;;;832.47;;
15788;SDS011;59075;50.670;6.474;2022-09-09T16:03:37;902.63;;;841.53;;
15788;SDS011;59075;50.670;6.474;2022-09-09T16:06:06;894.60;;;833.90;;
15788;SDS011;59075;50.670;6.474;2022-09-09T16:08:33;901.30;;;840.27;;
15788;SDS011;59075;50.670;6.474;2022-09-09T16:11:04;897.90;;;836.93;;
15788;SDS011;59075;50.670;6.474;2022-09-09T16:13:35;900.07;;;839.07;;
15788;SDS011;59075;50.670;6.474;2022-09-09T16:16:15;896.23;;;835.33;;
15788;SDS011;59075;50.670;6.474;2022-09-09T16:18:43;894.03;;;833.37;;
15788;SDS011;59075;50.670;6.474;2022-09-09T16:21:13;896.27;;;835.27;;
15788;SDS011;59075;50.670;6.474;2022-09-09T16:23:42;898.47;;;837.40;;
15788;SDS011;59075;50.670;6.474;2022-09-09T16:26:09;892.63;;;832.07;;
15788;SDS011;59075;50.670;6.474;2022-09-09T16:28:37;907.57;;;846.40;;
15788;SDS011;59075;50.670;6.474;2022-09-09T16:31:04;901.40;;;840.37;;
15788;SDS011;59075;50.670;6.474;2022-09-09T16:33:32;890.47;;;829.80;;
15788;SDS011;59075;50.670;6.474;2022-09-09T16:36:04;885.93;;;825.67;;
15788;SDS011;59075;50.670;6.474;2022-09-09T16:38:31;893.60;;;832.80;;
15788;SDS011;59075;50.670;6.474;2022-09-09T16:40:59;885.27;;;824.93;;
15788;SDS011;59075;50.670;6.474;2022-09-09T16:43:26;897.40;;;836.40;;
15788;SDS011;59075;50.670;6.474;2022-09-09T16:45:52;898.70;;;837.67;;
15788;SDS011;59075;50.670;6.474;2022-09-09T16:48:19;898.90;;;837.93;;
15788;SDS011;59075;50.670;6.474;2022-09-09T16:50:47;889.97;;;829.40;;
15788;SDS011;59075;50.670;6.474;2022-09-09T16:53:14;898.50;;;837.43;;
15788;SDS011;59075;50.670;6.474;2022-09-09T16:55:41;890.87;;;830.23;;
15788;SDS011;59075;50.670;6.474;2022-09-09T16:58:10;894.43;;;833.73;;
15788;SDS011;59075;50.670;6.474;2022-09-09T17:00:36;897.83;;;836.73;;
15788;SDS011;59075;50.670;6.474;2022-09-09T17:03:03;894.33;;;833.73;;
15788;SDS011;59075;50.670;6.474;2022-09-09T17:05:30;893.13;;;832.43;;
15788;SDS011;59075;50.670;6.474;2022-09-09T17:07:58;893.97;;;833.23;;
15788;SDS011;59075;50.670;6.474;2022-09-09T17:10:25;905.37;;;844.13;;
15788;SDS011;59075;50.670;6.474;2022-09-09T17:12:52;891.17;;;830.67;;
15788;SDS011;59075;50.670;6.474;2022-09-09T17:15:22;896.67;;;835.77;;
15788;SDS011;59075;50.670;6.474;2022-09-09T17:17:49;893.57;;;832.83;;
15788;SDS011;59075;50.670;6.474;2022-09-09T17:20:19;890.27;;;829.60;;
15788;SDS011;59075;50.670;6.474;2022-09-09T17:22:46;896.20;;;835.30;;
15788;SDS011;59075;50.670;6.474;2022-09-09T17:25:15;889.90;;;829.30;;
15788;SDS011;59075;50.670;6.474;2022-09-09T17:27:42;890.80;;;830.20;;
15788;SDS011;59075;50.670;6.474;2022-09-09T17:30:09;891.60;;;830.80;;
15788;SDS011;59075;50.670;6.474;2022-09-09T17:32:37;890.03;;;829.27;;
15788;SDS011;59075;50.670;6.474;2022-09-09T17:35:04;895.30;;;834.47;;
15788;SDS011;59075;50.670;6.474;2022-09-09T17:37:31;892.13;;;831.57;;
15788;SDS011;59075;50.670;6.474;2022-09-09T17:39:58;887.13;;;826.77;;
15788;SDS011;59075;50.670;6.474;2022-09-09T17:42:27;890.30;;;829.73;;
15788;SDS011;59075;50.670;6.474;2022-09-09T17:44:53;884.40;;;824.07;;
15788;SDS011;59075;50.670;6.474;2022-09-09T17:47:20;885.83;;;825.43;;
15788;SDS011;59075;50.670;6.474;2022-09-09T17:49:47;897.03;;;836.37;;
15788;SDS011;59075;50.670;6.474;2022-09-09T17:52:14;896.97;;;836.17;;
15788;SDS011;59075;50.670;6.474;2022-09-09T17:54:40;898.43;;;837.40;;
15788;SDS011;59075;50.670;6.474;2022-09-09T17:57:07;894.10;;;833.27;;
15788;SDS011;59075;50.670;6.474;2022-09-09T17:59:35;889.07;;;828.37;;
15788;SDS011;59075;50.670;6.474;2022-09-09T18:02:03;894.43;;;833.77;;
15788;SDS011;59075;50.670;6.474;2022-09-09T18:04:30;887.87;;;827.37;;
15788;SDS011;59075;50.670;6.474;2022-09-09T18:06:57;896.73;;;835.93;;
15788;SDS011;59075;50.670;6.474;2022-09-09T18:09:24;881.60;;;821.30;;
15788;SDS011;59075;50.670;6.474;2022-09-09T18:11:52;888.87;;;828.37;;
15788;SDS011;59075;50.670;6.474;2022-09-09T18:14:21;888.03;;;827.70;;
15788;SDS011;59075;50.670;6.474;2022-09-09T18:16:52;880.97;;;820.60;;
15788;SDS011;59075;50.670;6.474;2022-09-09T18:19:20;892.27;;;831.03;;
15788;SDS011;59075;50.670;6.474;2022-09-09T18:21:48;882.63;;;822.53;;
15788;SDS011;59075;50.670;6.474;2022-09-09T18:24:16;892.80;;;832.07;;
15788;SDS011;59075;50.670;6.474;2022-09-09T18:26:45;885.40;;;824.97;;
15788;SDS011;59075;50.670;6.474;2022-09-09T18:29:14;899.80;;;837.83;;
15788;SDS011;59075;50.670;6.474;2022-09-09T18:31:44;886.40;;;825.90;;
15788;SDS011;59075;50.670;6.474;2022-09-09T18:34:13;893.13;;;832.47;;
15788;SDS011;59075;50.670;6.474;2022-09-09T18:36:43;894.40;;;833.63;;
15788;SDS011;59075;50.670;6.474;2022-09-09T18:39:12;901.27;;;839.27;;
15788;SDS011;59075;50.670;6.474;2022-09-09T18:41:41;885.40;;;825.13;;
15788;SDS011;59075;50.670;6.474;2022-09-09T18:44:10;888.13;;;827.60;;
15788;SDS011;59075;50.670;6.474;2022-09-09T18:46:40;885.77;;;825.43;;
15788;SDS011;59075;50.670;6.474;2022-09-09T18:49:07;894.17;;;832.47;;
15788;SDS011;59075;50.670;6.474;2022-09-09T18:51:37;886.23;;;825.93;;
15788;SDS011;59075;50.670;6.474;2022-09-09T18:54:07;885.40;;;825.10;;
15788;SDS011;59075;50.670;6.474;2022-09-09T18:56:35;895.97;;;835.10;;
15788;SDS011;59075;50.670;6.474;2022-09-09T18:59:03;879.07;;;818.80;;
15788;SDS011;59075;50.670;6.474;2022-09-09T19:01:32;883.13;;;822.80;;
15788;SDS011;59075;50.670;6.474;2022-09-09T19:04:00;885.43;;;825.13;;
15788;SDS011;59075;50.670;6.474;2022-09-09T19:06:28;879.43;;;819.33;;
15788;SDS011;59075;50.670;6.474;2022-09-09T19:08:58;887.63;;;827.27;;
15788;SDS011;59075;50.670;6.474;2022-09-09T19:11:25;890.53;;;829.90;;
15788;SDS011;59075;50.670;6.474;2022-09-09T19:13:53;890.33;;;829.60;;
15788;SDS011;59075;50.670;6.474;2022-09-09T19:16:21;884.10;;;824.00;;
15788;SDS011;59075;50.670;6.474;2022-09-09T19:18:49;879.90;;;819.80;;
15788;SDS011;59075;50.670;6.474;2022-09-09T19:21:18;890.70;;;830.13;;